WUK9752 EYKA-EGGW
Flight info
| Callsign | WUK9752 |
|---|---|
| Flight time | 2h 29m |
| Altitude | 34000 |
| Route | GOJOM DCT ADAXA DCT NINTA DCT KOSEB DCT MEGAR DCT BLUFA DCT NOGRO M40 RINIS |
| Aircraft | A321/M-SDE3FGHIRWY/LB1 |
Departure
| Time | 2026-04-16 12:45 |
|---|---|
| Airport | Kaunas International Airport (EYKA) |
Arrival
| Time | 2026-04-16 15:14 |
|---|---|
| Airport | London Luton Airport (EGGW) |
| Time | Latitude | Longitude | Altitude | Speed | Heading |
|---|---|---|---|---|---|
| 2026-04-16 12:27 | 54.96606 | 24.07237 | 244 ft | 0 kts | 85° |
| 2026-04-16 12:40 | 54.96607 | 24.07266 | 244 ft | 4 kts | 86° |
| 2026-04-16 12:40 | 54.96588 | 24.07308 | 244 ft | 6 kts | 154° |
| 2026-04-16 12:41 | 54.96541 | 24.07337 | 243 ft | 8 kts | 124° |
| 2026-04-16 12:41 | 54.96538 | 24.07463 | 242 ft | 13 kts | 87° |
| 2026-04-16 12:41 | 54.96546 | 24.07635 | 244 ft | 16 kts | 84° |
| 2026-04-16 12:41 | 54.96556 | 24.07844 | 243 ft | 19 kts | 83° |
| 2026-04-16 12:42 | 54.96565 | 24.08095 | 245 ft | 22 kts | 88° |
| 2026-04-16 12:42 | 54.96579 | 24.08380 | 245 ft | 25 kts | 84° |
| 2026-04-16 12:42 | 54.96594 | 24.08706 | 244 ft | 29 kts | 87° |
| 2026-04-16 12:42 | 54.96612 | 24.09066 | 245 ft | 31 kts | 84° |
| 2026-04-16 12:43 | 54.96630 | 24.09452 | 247 ft | 33 kts | 84° |
| 2026-04-16 12:43 | 54.96573 | 24.09647 | 245 ft | 20 kts | 169° |
| 2026-04-16 12:43 | 54.96551 | 24.09651 | 245 ft | 0 kts | 178° |
| 2026-04-16 12:43 | 54.96543 | 24.09651 | 246 ft | 3 kts | 177° |
| 2026-04-16 12:44 | 54.96489 | 24.09657 | 245 ft | 15 kts | 176° |
| 2026-04-16 12:44 | 54.96447 | 24.09549 | 242 ft | 18 kts | 277° |
| 2026-04-16 12:44 | 54.96417 | 24.08793 | 247 ft | 103 kts | 265° |
| 2026-04-16 12:44 | 54.96330 | 24.07145 | 287 ft | 164 kts | 266° |
| 2026-04-16 12:45 | 54.96196 | 24.05075 | 949 ft | 180 kts | 264° |
| 2026-04-16 12:45 | 54.96039 | 24.02748 | 1591 ft | 206 kts | 265° |
| 2026-04-16 12:45 | 54.95910 | 24.00185 | 2202 ft | 218 kts | 267° |
| 2026-04-16 12:45 | 54.95794 | 23.97521 | 2945 ft | 223 kts | 268° |
| 2026-04-16 12:46 | 54.95674 | 23.94805 | 3705 ft | 228 kts | 267° |
| 2026-04-16 12:46 | 54.95545 | 23.91968 | 4263 ft | 241 kts | 268° |
| 2026-04-16 12:46 | 54.95506 | 23.89025 | 4924 ft | 246 kts | 281° |
| 2026-04-16 12:46 | 54.95978 | 23.86136 | 5600 ft | 250 kts | 292° |
| 2026-04-16 12:47 | 54.96710 | 23.83367 | 6329 ft | 254 kts | 298° |
| 2026-04-16 12:47 | 54.97523 | 23.80612 | 7036 ft | 257 kts | 300° |
| 2026-04-16 12:47 | 54.98362 | 23.77846 | 7761 ft | 260 kts | 300° |
| 2026-04-16 12:47 | 54.99214 | 23.75049 | 8517 ft | 262 kts | 300° |
| 2026-04-16 12:48 | 55.00069 | 23.72224 | 9264 ft | 265 kts | 300° |
| 2026-04-16 12:48 | 55.00926 | 23.69371 | 9994 ft | 267 kts | 299° |
| 2026-04-16 12:48 | 55.01787 | 23.66488 | 10657 ft | 270 kts | 299° |
| 2026-04-16 12:48 | 55.02656 | 23.63565 | 11303 ft | 273 kts | 299° |
| 2026-04-16 12:49 | 55.03530 | 23.60619 | 11972 ft | 276 kts | 299° |
| 2026-04-16 12:49 | 55.04416 | 23.57629 | 12638 ft | 278 kts | 299° |
| 2026-04-16 12:49 | 55.05310 | 23.54613 | 13290 ft | 282 kts | 299° |
| 2026-04-16 12:49 | 55.06202 | 23.51598 | 13929 ft | 285 kts | 299° |
| 2026-04-16 12:50 | 55.07115 | 23.48505 | 14497 ft | 288 kts | 299° |
| 2026-04-16 12:50 | 55.08040 | 23.45376 | 15064 ft | 292 kts | 300° |
| 2026-04-16 12:50 | 55.08976 | 23.42203 | 15627 ft | 295 kts | 300° |
| 2026-04-16 12:50 | 55.09925 | 23.38989 | 16187 ft | 299 kts | 300° |
| 2026-04-16 12:51 | 55.10878 | 23.35737 | 16734 ft | 303 kts | 299° |
| 2026-04-16 12:51 | 55.11846 | 23.32430 | 17294 ft | 307 kts | 300° |
| 2026-04-16 12:51 | 55.12821 | 23.29093 | 17842 ft | 310 kts | 300° |
| 2026-04-16 12:51 | 55.13811 | 23.25713 | 18382 ft | 314 kts | 299° |
| 2026-04-16 12:52 | 55.14810 | 23.22303 | 18851 ft | 317 kts | 300° |
| 2026-04-16 12:52 | 55.15816 | 23.18855 | 19334 ft | 319 kts | 300° |
| 2026-04-16 12:52 | 55.16828 | 23.15379 | 19820 ft | 322 kts | 299° |
| 2026-04-16 12:52 | 55.17847 | 23.11888 | 20307 ft | 324 kts | 299° |
| 2026-04-16 12:53 | 55.18888 | 23.08319 | 20523 ft | 336 kts | 299° |
| 2026-04-16 12:53 | 55.19966 | 23.04600 | 20712 ft | 348 kts | 298° |
| 2026-04-16 12:53 | 55.21061 | 23.00792 | 21115 ft | 352 kts | 298° |
| 2026-04-16 12:53 | 55.22155 | 22.96984 | 21578 ft | 355 kts | 298° |
| 2026-04-16 12:54 | 55.23271 | 22.93107 | 22063 ft | 358 kts | 298° |
| 2026-04-16 12:54 | 55.24401 | 22.89190 | 22532 ft | 361 kts | 298° |
| 2026-04-16 12:54 | 55.25535 | 22.85243 | 23006 ft | 363 kts | 298° |
| 2026-04-16 12:54 | 55.26675 | 22.81266 | 23483 ft | 366 kts | 297° |
| 2026-04-16 12:55 | 55.27823 | 22.77262 | 23901 ft | 368 kts | 297° |
| 2026-04-16 12:55 | 55.28970 | 22.73242 | 24321 ft | 370 kts | 297° |
| 2026-04-16 12:55 | 55.30120 | 22.69202 | 24766 ft | 370 kts | 297° |
| 2026-04-16 12:55 | 55.31275 | 22.65156 | 25207 ft | 370 kts | 297° |
| 2026-04-16 12:56 | 55.32425 | 22.61114 | 25652 ft | 371 kts | 297° |
| 2026-04-16 12:56 | 55.33574 | 22.57060 | 26088 ft | 371 kts | 297° |
| 2026-04-16 12:56 | 55.34724 | 22.52999 | 26514 ft | 372 kts | 297° |
| 2026-04-16 12:56 | 55.35881 | 22.48917 | 26922 ft | 373 kts | 297° |
| 2026-04-16 12:57 | 55.37039 | 22.44829 | 27309 ft | 375 kts | 297° |
| 2026-04-16 12:57 | 55.38204 | 22.40706 | 27683 ft | 377 kts | 297° |
| 2026-04-16 12:57 | 55.39372 | 22.36560 | 28050 ft | 379 kts | 297° |
| 2026-04-16 12:57 | 55.40543 | 22.32398 | 28401 ft | 380 kts | 297° |
| 2026-04-16 12:58 | 55.41718 | 22.28213 | 28751 ft | 382 kts | 297° |
| 2026-04-16 12:58 | 55.42893 | 22.24013 | 29109 ft | 383 kts | 296° |
| 2026-04-16 12:58 | 55.44064 | 22.19807 | 29555 ft | 382 kts | 296° |
| 2026-04-16 12:58 | 55.45229 | 22.15616 | 30041 ft | 380 kts | 296° |
| 2026-04-16 12:59 | 55.46372 | 22.11502 | 30430 ft | 378 kts | 296° |
| 2026-04-16 12:59 | 55.47527 | 22.07344 | 30764 ft | 377 kts | 296° |
| 2026-04-16 12:59 | 55.48680 | 22.03188 | 31066 ft | 377 kts | 296° |
| 2026-04-16 13:00 | 55.50982 | 21.94880 | 31656 ft | 377 kts | 296° |
| 2026-04-16 13:00 | 55.52132 | 21.90717 | 31936 ft | 377 kts | 296° |
| 2026-04-16 13:00 | 55.53278 | 21.86557 | 32223 ft | 377 kts | 296° |
| 2026-04-16 13:00 | 55.54424 | 21.82388 | 32504 ft | 377 kts | 296° |
| 2026-04-16 13:01 | 55.55565 | 21.78229 | 32766 ft | 377 kts | 296° |
| 2026-04-16 13:01 | 55.56707 | 21.74069 | 33043 ft | 377 kts | 296° |
| 2026-04-16 13:01 | 55.57852 | 21.69890 | 33305 ft | 377 kts | 296° |
| 2026-04-16 13:01 | 55.58992 | 21.65716 | 33563 ft | 377 kts | 296° |
| 2026-04-16 13:02 | 55.60127 | 21.61539 | 33788 ft | 378 kts | 296° |
| 2026-04-16 13:02 | 55.61268 | 21.57328 | 33921 ft | 380 kts | 296° |
| 2026-04-16 13:02 | 55.62414 | 21.53098 | 34099 ft | 382 kts | 296° |
| 2026-04-16 13:03 | 55.64748 | 21.44494 | 34159 ft | 394 kts | 296° |
| 2026-04-16 13:03 | 55.67149 | 21.35604 | 34165 ft | 407 kts | 296° |
| 2026-04-16 13:04 | 55.69621 | 21.26399 | 34170 ft | 420 kts | 296° |
| 2026-04-16 13:04 | 55.72162 | 21.16901 | 34172 ft | 433 kts | 295° |
| 2026-04-16 13:05 | 55.74770 | 21.07112 | 34172 ft | 442 kts | 295° |
| 2026-04-16 13:05 | 55.77378 | 20.97272 | 34171 ft | 444 kts | 295° |
| 2026-04-16 13:06 | 55.79998 | 20.87342 | 34170 ft | 444 kts | 295° |
| 2026-04-16 13:06 | 55.82614 | 20.77404 | 34170 ft | 444 kts | 295° |
| 2026-04-16 13:07 | 55.85226 | 20.67440 | 34178 ft | 444 kts | 295° |
| 2026-04-16 13:07 | 55.87820 | 20.57457 | 34186 ft | 445 kts | 295° |
| 2026-04-16 13:08 | 55.90410 | 20.47437 | 34189 ft | 445 kts | 295° |
| 2026-04-16 13:08 | 55.92995 | 20.37424 | 34199 ft | 445 kts | 295° |
| 2026-04-16 13:09 | 55.95586 | 20.27379 | 34203 ft | 445 kts | 295° |
| 2026-04-16 13:09 | 55.98166 | 20.17326 | 34205 ft | 445 kts | 295° |
| 2026-04-16 13:10 | 56.00727 | 20.07246 | 34202 ft | 446 kts | 295° |
| 2026-04-16 13:10 | 56.03279 | 19.97158 | 34208 ft | 446 kts | 295° |
| 2026-04-16 13:11 | 56.05830 | 19.87055 | 34205 ft | 446 kts | 295° |
| 2026-04-16 13:11 | 56.08372 | 19.76933 | 34207 ft | 446 kts | 295° |
| 2026-04-16 13:12 | 56.10913 | 19.66790 | 34207 ft | 446 kts | 295° |
| 2026-04-16 13:12 | 56.13436 | 19.56696 | 34209 ft | 446 kts | 294° |
| 2026-04-16 13:13 | 56.15960 | 19.46513 | 34214 ft | 446 kts | 294° |
| 2026-04-16 13:13 | 56.18468 | 19.36328 | 34213 ft | 446 kts | 294° |
| 2026-04-16 13:14 | 56.20971 | 19.26122 | 34218 ft | 446 kts | 294° |
| 2026-04-16 13:14 | 56.23461 | 19.15903 | 34220 ft | 446 kts | 294° |
| 2026-04-16 13:15 | 56.25948 | 19.05679 | 34216 ft | 446 kts | 294° |
| 2026-04-16 13:15 | 56.28301 | 18.95411 | 34212 ft | 447 kts | 287° |
| 2026-04-16 13:16 | 56.29009 | 18.84320 | 34220 ft | 449 kts | 267° |
| 2026-04-16 13:16 | 56.27942 | 18.73201 | 34217 ft | 451 kts | 260° |
| 2026-04-16 13:17 | 56.26706 | 18.62136 | 34222 ft | 451 kts | 261° |
| 2026-04-16 13:17 | 56.25464 | 18.51075 | 34227 ft | 451 kts | 261° |
| 2026-04-16 13:18 | 56.24207 | 18.40028 | 34218 ft | 450 kts | 260° |
| 2026-04-16 13:18 | 56.22890 | 18.29029 | 34224 ft | 451 kts | 256° |
| 2026-04-16 13:19 | 56.20648 | 18.18536 | 34228 ft | 453 kts | 250° |
| 2026-04-16 13:19 | 56.18289 | 18.08064 | 34225 ft | 452 kts | 250° |
| 2026-04-16 13:20 | 56.15931 | 17.97607 | 34234 ft | 452 kts | 250° |
| 2026-04-16 13:20 | 56.13564 | 17.87154 | 34235 ft | 451 kts | 250° |
| 2026-04-16 13:21 | 56.11198 | 17.76752 | 34232 ft | 450 kts | 250° |
| 2026-04-16 13:21 | 56.08822 | 17.66384 | 34232 ft | 449 kts | 250° |
| 2026-04-16 13:22 | 56.06441 | 17.56032 | 34234 ft | 449 kts | 250° |
| 2026-04-16 13:22 | 56.04062 | 17.45718 | 34236 ft | 448 kts | 250° |
| 2026-04-16 13:23 | 56.01695 | 17.35509 | 34235 ft | 447 kts | 250° |
| 2026-04-16 13:23 | 55.99296 | 17.25272 | 34232 ft | 446 kts | 250° |
| 2026-04-16 13:24 | 55.96894 | 17.15061 | 34234 ft | 446 kts | 250° |
| 2026-04-16 13:24 | 55.94493 | 17.04867 | 34234 ft | 446 kts | 249° |
| 2026-04-16 13:25 | 55.92082 | 16.94696 | 34232 ft | 445 kts | 249° |
| 2026-04-16 13:25 | 55.89659 | 16.84518 | 34237 ft | 445 kts | 249° |
| 2026-04-16 13:26 | 55.87231 | 16.74378 | 34239 ft | 445 kts | 249° |
| 2026-04-16 13:26 | 55.84815 | 16.64328 | 34237 ft | 445 kts | 249° |
| 2026-04-16 13:27 | 55.82378 | 16.54218 | 34241 ft | 444 kts | 249° |
| 2026-04-16 13:27 | 55.79933 | 16.44121 | 34238 ft | 444 kts | 249° |
| 2026-04-16 13:28 | 55.77482 | 16.34050 | 34236 ft | 444 kts | 248° |
| 2026-04-16 13:28 | 55.75016 | 16.23996 | 34238 ft | 444 kts | 248° |
| 2026-04-16 13:29 | 55.72538 | 16.13939 | 34238 ft | 444 kts | 248° |
| 2026-04-16 13:29 | 55.70477 | 16.05592 | 34238 ft | 445 kts | 248° |
| 2026-04-16 13:30 | 55.67992 | 15.95559 | 34247 ft | 445 kts | 248° |
| 2026-04-16 13:30 | 55.65091 | 15.83884 | 34244 ft | 445 kts | 248° |
| 2026-04-16 13:31 | 55.62988 | 15.75491 | 34244 ft | 445 kts | 248° |
| 2026-04-16 13:31 | 55.60466 | 15.65477 | 34247 ft | 445 kts | 248° |
| 2026-04-16 13:32 | 55.57944 | 15.55481 | 34245 ft | 445 kts | 247° |
| 2026-04-16 13:32 | 55.55431 | 15.45556 | 34246 ft | 445 kts | 247° |
| 2026-04-16 13:33 | 55.52895 | 15.35608 | 34249 ft | 444 kts | 247° |
| 2026-04-16 13:33 | 55.50348 | 15.25663 | 34250 ft | 444 kts | 247° |
| 2026-04-16 13:34 | 55.47801 | 15.15752 | 34251 ft | 443 kts | 247° |
| 2026-04-16 13:34 | 55.45246 | 15.05869 | 34248 ft | 443 kts | 247° |
| 2026-04-16 13:35 | 55.42683 | 14.96002 | 34246 ft | 443 kts | 247° |
| 2026-04-16 13:35 | 55.40147 | 14.86135 | 34247 ft | 442 kts | 248° |
| 2026-04-16 13:36 | 55.37678 | 14.76222 | 34248 ft | 442 kts | 248° |
| 2026-04-16 13:36 | 55.35224 | 14.66323 | 34248 ft | 442 kts | 248° |
| 2026-04-16 13:37 | 55.32745 | 14.56449 | 34246 ft | 441 kts | 248° |
| 2026-04-16 13:37 | 55.30271 | 14.46672 | 34244 ft | 441 kts | 248° |
| 2026-04-16 13:38 | 55.27775 | 14.36859 | 34246 ft | 440 kts | 248° |
| 2026-04-16 13:38 | 55.25271 | 14.27031 | 34239 ft | 440 kts | 248° |
| 2026-04-16 13:39 | 55.22760 | 14.17222 | 34244 ft | 440 kts | 247° |
| 2026-04-16 13:39 | 55.20241 | 14.07449 | 34234 ft | 441 kts | 247° |
| 2026-04-16 13:40 | 55.17731 | 13.97740 | 34237 ft | 440 kts | 247° |
| 2026-04-16 13:40 | 55.15201 | 13.87988 | 34236 ft | 440 kts | 247° |
| 2026-04-16 13:41 | 55.12656 | 13.78238 | 34229 ft | 440 kts | 247° |
| 2026-04-16 13:41 | 55.10108 | 13.68518 | 34230 ft | 440 kts | 247° |
| 2026-04-16 13:42 | 55.07554 | 13.58801 | 34231 ft | 440 kts | 247° |
| 2026-04-16 13:42 | 55.05000 | 13.49109 | 34229 ft | 440 kts | 247° |
| 2026-04-16 13:43 | 55.02457 | 13.39489 | 34231 ft | 439 kts | 247° |
| 2026-04-16 13:43 | 54.99882 | 13.29833 | 34229 ft | 439 kts | 247° |
| 2026-04-16 13:44 | 54.97300 | 13.20196 | 34230 ft | 438 kts | 247° |
| 2026-04-16 13:44 | 54.94721 | 13.10588 | 34228 ft | 438 kts | 247° |
| 2026-04-16 13:45 | 54.92132 | 13.01002 | 34223 ft | 437 kts | 247° |
| 2026-04-16 13:45 | 54.89561 | 12.91508 | 34224 ft | 437 kts | 247° |
| 2026-04-16 13:46 | 54.86971 | 12.81976 | 34224 ft | 436 kts | 246° |
| 2026-04-16 13:46 | 54.84369 | 12.72456 | 34217 ft | 436 kts | 246° |
| 2026-04-16 13:47 | 54.81762 | 12.62976 | 34212 ft | 435 kts | 246° |
| 2026-04-16 13:47 | 54.79162 | 12.53503 | 34206 ft | 435 kts | 246° |
| 2026-04-16 13:48 | 54.76549 | 12.44040 | 34205 ft | 435 kts | 246° |
| 2026-04-16 13:48 | 54.73923 | 12.34607 | 34200 ft | 435 kts | 246° |
| 2026-04-16 13:49 | 54.71295 | 12.25181 | 34200 ft | 435 kts | 246° |
| 2026-04-16 13:49 | 54.68657 | 12.15747 | 34197 ft | 435 kts | 246° |
| 2026-04-16 13:50 | 54.66014 | 12.06334 | 34192 ft | 435 kts | 246° |
| 2026-04-16 13:50 | 54.63361 | 11.96940 | 34191 ft | 435 kts | 246° |
| 2026-04-16 13:51 | 54.60702 | 11.87549 | 34188 ft | 435 kts | 246° |
| 2026-04-16 13:51 | 54.58061 | 11.78248 | 34189 ft | 435 kts | 246° |
| 2026-04-16 13:52 | 54.55383 | 11.68903 | 34192 ft | 435 kts | 245° |
| 2026-04-16 13:52 | 54.52702 | 11.59570 | 34193 ft | 435 kts | 245° |
| 2026-04-16 13:53 | 54.50022 | 11.50247 | 34194 ft | 434 kts | 246° |
| 2026-04-16 13:53 | 54.47335 | 11.40924 | 34185 ft | 434 kts | 245° |
| 2026-04-16 13:54 | 54.44639 | 11.31625 | 34183 ft | 434 kts | 245° |
| 2026-04-16 13:54 | 54.41934 | 11.22336 | 34190 ft | 435 kts | 245° |
| 2026-04-16 13:55 | 54.39232 | 11.13127 | 34177 ft | 434 kts | 245° |
| 2026-04-16 13:55 | 54.36509 | 11.03891 | 34186 ft | 434 kts | 245° |
| 2026-04-16 13:56 | 54.33945 | 10.94549 | 34186 ft | 432 kts | 248° |
| 2026-04-16 13:56 | 54.31568 | 10.85097 | 34183 ft | 432 kts | 249° |
| 2026-04-16 13:57 | 54.29191 | 10.75659 | 34180 ft | 431 kts | 248° |
| 2026-04-16 13:57 | 54.26755 | 10.66291 | 34182 ft | 430 kts | 248° |
| 2026-04-16 13:58 | 54.23073 | 10.52301 | 34178 ft | 430 kts | 248° |
| 2026-04-16 13:58 | 54.20624 | 10.42993 | 34184 ft | 429 kts | 248° |
| 2026-04-16 13:59 | 54.18172 | 10.33687 | 34175 ft | 429 kts | 248° |
| 2026-04-16 13:59 | 54.15713 | 10.24402 | 34180 ft | 429 kts | 248° |
| 2026-04-16 14:00 | 54.13260 | 10.15197 | 34190 ft | 429 kts | 248° |
| 2026-04-16 14:00 | 54.10785 | 10.05953 | 34191 ft | 428 kts | 248° |
| 2026-04-16 14:01 | 54.08304 | 9.96717 | 34192 ft | 427 kts | 248° |
| 2026-04-16 14:01 | 54.05816 | 9.87515 | 34181 ft | 427 kts | 248° |
| 2026-04-16 14:02 | 54.03335 | 9.78336 | 34181 ft | 427 kts | 248° |
| 2026-04-16 14:02 | 54.00844 | 9.69156 | 34181 ft | 427 kts | 248° |
| 2026-04-16 14:03 | 53.98333 | 9.59986 | 34188 ft | 427 kts | 248° |
| 2026-04-16 14:03 | 53.95823 | 9.50844 | 34183 ft | 427 kts | 248° |
| 2026-04-16 14:04 | 53.93313 | 9.41701 | 34190 ft | 427 kts | 248° |
| 2026-04-16 14:04 | 53.90796 | 9.32574 | 34192 ft | 427 kts | 248° |
| 2026-04-16 14:05 | 53.88293 | 9.23521 | 34189 ft | 427 kts | 248° |
| 2026-04-16 14:05 | 53.85762 | 9.14429 | 34200 ft | 427 kts | 248° |
| 2026-04-16 14:06 | 53.83220 | 9.05354 | 34204 ft | 426 kts | 248° |
| 2026-04-16 14:06 | 53.80675 | 8.96290 | 34204 ft | 426 kts | 248° |
| 2026-04-16 14:07 | 53.78128 | 8.87246 | 34204 ft | 425 kts | 248° |
| 2026-04-16 14:07 | 53.75578 | 8.78210 | 34204 ft | 425 kts | 248° |
| 2026-04-16 14:08 | 53.73030 | 8.69216 | 34199 ft | 424 kts | 248° |
| 2026-04-16 14:08 | 53.70486 | 8.60290 | 34206 ft | 424 kts | 248° |
| 2026-04-16 14:09 | 53.67901 | 8.51257 | 34203 ft | 424 kts | 248° |
| 2026-04-16 14:09 | 53.65346 | 8.42373 | 34204 ft | 424 kts | 248° |
| 2026-04-16 14:10 | 53.62771 | 8.33425 | 34208 ft | 424 kts | 248° |
| 2026-04-16 14:10 | 53.60191 | 8.24497 | 34208 ft | 424 kts | 248° |
| 2026-04-16 14:11 | 53.57600 | 8.15583 | 34204 ft | 423 kts | 248° |
| 2026-04-16 14:11 | 53.54999 | 8.06687 | 34206 ft | 423 kts | 248° |
| 2026-04-16 14:12 | 53.52403 | 7.97815 | 34211 ft | 423 kts | 248° |
| 2026-04-16 14:12 | 53.49807 | 7.88944 | 34214 ft | 423 kts | 248° |
| 2026-04-16 14:13 | 53.47200 | 7.80092 | 34212 ft | 422 kts | 248° |
| 2026-04-16 14:13 | 53.44591 | 7.71265 | 34210 ft | 422 kts | 248° |
| 2026-04-16 14:14 | 53.41993 | 7.62529 | 34210 ft | 421 kts | 248° |
| 2026-04-16 14:14 | 53.39373 | 7.53759 | 34207 ft | 420 kts | 248° |
| 2026-04-16 14:15 | 53.36751 | 7.45001 | 34229 ft | 420 kts | 248° |
| 2026-04-16 14:15 | 53.34132 | 7.36284 | 34238 ft | 419 kts | 248° |
| 2026-04-16 14:16 | 53.31514 | 7.27592 | 34234 ft | 418 kts | 248° |
| 2026-04-16 14:16 | 53.28892 | 7.18911 | 34224 ft | 418 kts | 248° |
| 2026-04-16 14:17 | 53.26260 | 7.10249 | 34220 ft | 418 kts | 248° |
| 2026-04-16 14:17 | 53.24068 | 7.03069 | 34220 ft | 417 kts | 248° |
| 2026-04-16 14:18 | 53.21429 | 6.94436 | 34214 ft | 417 kts | 248° |
| 2026-04-16 14:18 | 53.18791 | 6.85829 | 34224 ft | 417 kts | 248° |
| 2026-04-16 14:19 | 53.16142 | 6.77248 | 34230 ft | 416 kts | 248° |
| 2026-04-16 14:19 | 53.13492 | 6.68673 | 34230 ft | 416 kts | 248° |
| 2026-04-16 14:20 | 53.10841 | 6.60099 | 34236 ft | 416 kts | 248° |
| 2026-04-16 14:20 | 53.08189 | 6.51551 | 34239 ft | 416 kts | 248° |
| 2026-04-16 14:21 | 53.05545 | 6.43071 | 34238 ft | 416 kts | 248° |
| 2026-04-16 14:21 | 53.02872 | 6.34541 | 34233 ft | 415 kts | 248° |
| 2026-04-16 14:22 | 53.00199 | 6.26046 | 34231 ft | 414 kts | 248° |
| 2026-04-16 14:22 | 52.97524 | 6.17562 | 34228 ft | 414 kts | 248° |
| 2026-04-16 14:23 | 52.94851 | 6.09128 | 34224 ft | 413 kts | 248° |
| 2026-04-16 14:23 | 52.92168 | 6.00706 | 34226 ft | 412 kts | 248° |
| 2026-04-16 14:24 | 52.89503 | 5.92365 | 34224 ft | 411 kts | 248° |
| 2026-04-16 14:24 | 52.86824 | 5.83983 | 34225 ft | 410 kts | 248° |
| 2026-04-16 14:25 | 52.84152 | 5.75634 | 34225 ft | 410 kts | 248° |
| 2026-04-16 14:25 | 52.81470 | 5.67308 | 34228 ft | 409 kts | 248° |
| 2026-04-16 14:26 | 52.78806 | 5.59064 | 34231 ft | 409 kts | 248° |
| 2026-04-16 14:26 | 52.76128 | 5.50798 | 34235 ft | 408 kts | 248° |
| 2026-04-16 14:27 | 52.73441 | 5.42542 | 34231 ft | 408 kts | 248° |
| 2026-04-16 14:27 | 52.70758 | 5.34316 | 34230 ft | 407 kts | 248° |
| 2026-04-16 14:28 | 52.68070 | 5.26108 | 34228 ft | 407 kts | 248° |
| 2026-04-16 14:28 | 52.65372 | 5.17906 | 34230 ft | 406 kts | 248° |
| 2026-04-16 14:29 | 52.62675 | 5.09739 | 34226 ft | 406 kts | 248° |
| 2026-04-16 14:29 | 52.59974 | 5.01582 | 34226 ft | 405 kts | 248° |
| 2026-04-16 14:30 | 52.57272 | 4.93447 | 34230 ft | 405 kts | 248° |
| 2026-04-16 14:30 | 52.54591 | 4.85379 | 34232 ft | 404 kts | 248° |
| 2026-04-16 14:31 | 52.51890 | 4.77292 | 34230 ft | 404 kts | 248° |
| 2026-04-16 14:31 | 52.49179 | 4.69215 | 34245 ft | 403 kts | 247° |
| 2026-04-16 14:32 | 52.46473 | 4.61156 | 34243 ft | 403 kts | 247° |
| 2026-04-16 14:32 | 52.43766 | 4.53122 | 34238 ft | 403 kts | 247° |
| 2026-04-16 14:33 | 52.41050 | 4.45104 | 34240 ft | 402 kts | 247° |
| 2026-04-16 14:33 | 52.38323 | 4.37103 | 34242 ft | 402 kts | 247° |
| 2026-04-16 14:34 | 52.35609 | 4.29126 | 34238 ft | 401 kts | 248° |
| 2026-04-16 14:34 | 52.32902 | 4.21170 | 34233 ft | 400 kts | 247° |
| 2026-04-16 14:35 | 52.30180 | 4.13236 | 34233 ft | 399 kts | 247° |
| 2026-04-16 14:35 | 52.27475 | 4.05383 | 34235 ft | 399 kts | 247° |
| 2026-04-16 14:36 | 52.24757 | 3.97488 | 34235 ft | 399 kts | 247° |
| 2026-04-16 14:36 | 52.22026 | 3.89609 | 34233 ft | 398 kts | 247° |
| 2026-04-16 14:37 | 52.19297 | 3.81752 | 34230 ft | 397 kts | 247° |
| 2026-04-16 14:37 | 52.16569 | 3.73924 | 34229 ft | 397 kts | 247° |
| 2026-04-16 14:38 | 52.13839 | 3.66104 | 34226 ft | 397 kts | 247° |
| 2026-04-16 14:38 | 52.11109 | 3.58299 | 34232 ft | 397 kts | 247° |
| 2026-04-16 14:39 | 52.08391 | 3.50563 | 34236 ft | 396 kts | 247° |
| 2026-04-16 14:39 | 52.05644 | 3.42800 | 34236 ft | 396 kts | 246° |
| 2026-04-16 14:40 | 52.02902 | 3.35060 | 34244 ft | 395 kts | 247° |
| 2026-04-16 14:40 | 52.00160 | 3.27334 | 34252 ft | 395 kts | 246° |
| 2026-04-16 14:41 | 51.97474 | 3.19582 | 34244 ft | 390 kts | 251° |
| 2026-04-16 14:41 | 51.96177 | 3.11211 | 34240 ft | 380 kts | 267° |
| 2026-04-16 14:42 | 51.95640 | 3.02690 | 34234 ft | 380 kts | 266° |
| 2026-04-16 14:42 | 51.95075 | 2.94169 | 34232 ft | 380 kts | 266° |
| 2026-04-16 14:43 | 51.94505 | 2.85655 | 34224 ft | 380 kts | 266° |
| 2026-04-16 14:43 | 51.93929 | 2.77145 | 34218 ft | 380 kts | 266° |
| 2026-04-16 14:44 | 51.93642 | 2.72943 | 34101 ft | 378 kts | 266° |
| 2026-04-16 14:44 | 51.93355 | 2.68730 | 33565 ft | 375 kts | 266° |
| 2026-04-16 14:44 | 51.93069 | 2.64544 | 33002 ft | 372 kts | 266° |
| 2026-04-16 14:44 | 51.92785 | 2.60388 | 32423 ft | 371 kts | 265° |
| 2026-04-16 14:45 | 51.92501 | 2.56246 | 31847 ft | 369 kts | 265° |
| 2026-04-16 14:45 | 51.92215 | 2.52119 | 31286 ft | 368 kts | 265° |
| 2026-04-16 14:45 | 51.91929 | 2.48002 | 30721 ft | 367 kts | 265° |
| 2026-04-16 14:45 | 51.91643 | 2.43902 | 30153 ft | 366 kts | 265° |
| 2026-04-16 14:46 | 51.91354 | 2.39808 | 29518 ft | 365 kts | 265° |
| 2026-04-16 14:46 | 51.91064 | 2.35736 | 28920 ft | 363 kts | 264° |
| 2026-04-16 14:46 | 51.90787 | 2.31725 | 28344 ft | 361 kts | 265° |
| 2026-04-16 14:46 | 51.90604 | 2.27667 | 27769 ft | 359 kts | 268° |
| 2026-04-16 14:47 | 51.90505 | 2.23633 | 27210 ft | 358 kts | 269° |
| 2026-04-16 14:47 | 51.90445 | 2.19618 | 26670 ft | 356 kts | 269° |
| 2026-04-16 14:47 | 51.90392 | 2.15609 | 26147 ft | 355 kts | 269° |
| 2026-04-16 14:47 | 51.90330 | 2.11617 | 25647 ft | 354 kts | 268° |
| 2026-04-16 14:48 | 51.90254 | 2.07634 | 25165 ft | 354 kts | 268° |
| 2026-04-16 14:48 | 51.90162 | 2.03653 | 24702 ft | 353 kts | 268° |
| 2026-04-16 14:48 | 51.90063 | 1.99688 | 24255 ft | 352 kts | 267° |
| 2026-04-16 14:48 | 51.89960 | 1.95730 | 23807 ft | 351 kts | 267° |
| 2026-04-16 14:49 | 51.90036 | 1.91791 | 23289 ft | 351 kts | 278° |
| 2026-04-16 14:49 | 51.90675 | 1.87982 | 22786 ft | 351 kts | 290° |
| 2026-04-16 14:49 | 51.91868 | 1.84536 | 22298 ft | 353 kts | 304° |
| 2026-04-16 14:49 | 51.93435 | 1.81476 | 21799 ft | 352 kts | 307° |
| 2026-04-16 14:50 | 51.95016 | 1.78454 | 21311 ft | 351 kts | 307° |
| 2026-04-16 14:50 | 51.96564 | 1.75472 | 20852 ft | 348 kts | 307° |
| 2026-04-16 14:50 | 51.98117 | 1.72464 | 20381 ft | 346 kts | 307° |
| 2026-04-16 14:50 | 51.99656 | 1.69474 | 19913 ft | 344 kts | 307° |
| 2026-04-16 14:51 | 52.01185 | 1.66503 | 19457 ft | 342 kts | 307° |
| 2026-04-16 14:51 | 52.02705 | 1.63546 | 19004 ft | 340 kts | 307° |
| 2026-04-16 14:51 | 52.04218 | 1.60603 | 18557 ft | 338 kts | 307° |
| 2026-04-16 14:51 | 52.05721 | 1.57679 | 18060 ft | 336 kts | 307° |
| 2026-04-16 14:53 | 52.15716 | 1.37141 | 14511 ft | 323 kts | 292° |
| 2026-04-16 14:53 | 52.16441 | 1.33702 | 14057 ft | 320 kts | 282° |
| 2026-04-16 14:54 | 52.16781 | 1.30145 | 13573 ft | 317 kts | 276° |
| 2026-04-16 14:54 | 52.17051 | 1.26635 | 13080 ft | 316 kts | 276° |
| 2026-04-16 14:54 | 52.17329 | 1.23087 | 12589 ft | 314 kts | 276° |
| 2026-04-16 14:54 | 52.17611 | 1.19564 | 12126 ft | 312 kts | 276° |
| 2026-04-16 14:55 | 52.17893 | 1.16069 | 11659 ft | 310 kts | 276° |
| 2026-04-16 14:55 | 52.18170 | 1.12608 | 11209 ft | 308 kts | 276° |
| 2026-04-16 14:55 | 52.18445 | 1.09153 | 10766 ft | 306 kts | 276° |
| 2026-04-16 14:55 | 52.18714 | 1.05720 | 10333 ft | 304 kts | 276° |
| 2026-04-16 14:56 | 52.18975 | 1.02305 | 9881 ft | 303 kts | 275° |
| 2026-04-16 14:56 | 52.19233 | 0.98897 | 9409 ft | 302 kts | 275° |
| 2026-04-16 14:56 | 52.19479 | 0.95508 | 8945 ft | 300 kts | 272° |
| 2026-04-16 14:56 | 52.19487 | 0.92165 | 8512 ft | 297 kts | 267° |
| 2026-04-16 14:57 | 52.19416 | 0.88801 | 8076 ft | 296 kts | 266° |
| 2026-04-16 14:57 | 52.19339 | 0.85471 | 7972 ft | 295 kts | 266° |
| 2026-04-16 14:57 | 52.19262 | 0.82178 | 7976 ft | 282 kts | 266° |
| 2026-04-16 14:57 | 52.19188 | 0.79081 | 7977 ft | 266 kts | 266° |
| 2026-04-16 14:58 | 52.19124 | 0.76148 | 7977 ft | 251 kts | 266° |
| 2026-04-16 14:58 | 52.19009 | 0.70595 | 7981 ft | 243 kts | 266° |
| 2026-04-16 14:58 | 52.18952 | 0.67842 | 7984 ft | 243 kts | 266° |
| 2026-04-16 14:59 | 52.18898 | 0.65131 | 7980 ft | 243 kts | 266° |
| 2026-04-16 14:59 | 52.18796 | 0.62381 | 7981 ft | 243 kts | 262° |
| 2026-04-16 14:59 | 52.18603 | 0.59652 | 7980 ft | 242 kts | 262° |
| 2026-04-16 14:59 | 52.18392 | 0.56932 | 7981 ft | 242 kts | 261° |
| 2026-04-16 15:00 | 52.18179 | 0.54212 | 7977 ft | 242 kts | 261° |
| 2026-04-16 15:00 | 52.17969 | 0.51490 | 7979 ft | 242 kts | 261° |
| 2026-04-16 15:00 | 52.17758 | 0.48770 | 7981 ft | 242 kts | 261° |
| 2026-04-16 15:00 | 52.17547 | 0.46055 | 7983 ft | 242 kts | 261° |
| 2026-04-16 15:01 | 52.17340 | 0.43339 | 7982 ft | 242 kts | 261° |
| 2026-04-16 15:01 | 52.17134 | 0.40613 | 7988 ft | 242 kts | 261° |
| 2026-04-16 15:01 | 52.16926 | 0.37900 | 7987 ft | 242 kts | 261° |
| 2026-04-16 15:01 | 52.16720 | 0.35171 | 7985 ft | 242 kts | 261° |
| 2026-04-16 15:02 | 52.16516 | 0.32455 | 7980 ft | 242 kts | 261° |
| 2026-04-16 15:02 | 52.16308 | 0.29740 | 7983 ft | 241 kts | 261° |
| 2026-04-16 15:02 | 52.16103 | 0.27030 | 7966 ft | 240 kts | 261° |
| 2026-04-16 15:02 | 52.15900 | 0.24338 | 7676 ft | 239 kts | 261° |
| 2026-04-16 15:03 | 52.15700 | 0.21651 | 7372 ft | 238 kts | 261° |
| 2026-04-16 15:03 | 52.15505 | 0.19014 | 7079 ft | 237 kts | 261° |
| 2026-04-16 15:03 | 52.15306 | 0.16315 | 6766 ft | 236 kts | 261° |
| 2026-04-16 15:03 | 52.15116 | 0.13698 | 6478 ft | 235 kts | 261° |
| 2026-04-16 15:04 | 52.14930 | 0.11051 | 6154 ft | 235 kts | 261° |
| 2026-04-16 15:04 | 52.14744 | 0.08434 | 6009 ft | 232 kts | 261° |
| 2026-04-16 15:04 | 52.14552 | 0.05810 | 6006 ft | 234 kts | 261° |
| 2026-04-16 15:04 | 52.14363 | 0.03165 | 6011 ft | 235 kts | 261° |
| 2026-04-16 15:05 | 52.14181 | 0.00600 | 6007 ft | 221 kts | 261° |
| 2026-04-16 15:05 | 52.14007 | -0.01821 | 6016 ft | 211 kts | 261° |
| 2026-04-16 15:05 | 52.13835 | -0.04200 | 6041 ft | 211 kts | 261° |
| 2026-04-16 15:05 | 52.13586 | -0.06544 | 6019 ft | 210 kts | 248° |
| 2026-04-16 15:06 | 52.12672 | -0.08362 | 6015 ft | 212 kts | 214° |
| 2026-04-16 15:06 | 52.11253 | -0.09048 | 6013 ft | 216 kts | 189° |
| 2026-04-16 15:06 | 52.09750 | -0.09223 | 6006 ft | 217 kts | 186° |
| 2026-04-16 15:06 | 52.08753 | -0.09309 | 6006 ft | 217 kts | 186° |
| 2026-04-16 15:07 | 52.07263 | -0.09436 | 5811 ft | 210 kts | 186° |
| 2026-04-16 15:07 | 52.05802 | -0.09560 | 5198 ft | 211 kts | 186° |
| 2026-04-16 15:07 | 52.04359 | -0.09678 | 5014 ft | 198 kts | 186° |
| 2026-04-16 15:07 | 52.03016 | -0.09779 | 5021 ft | 192 kts | 186° |
| 2026-04-16 15:08 | 52.01676 | -0.09882 | 5007 ft | 193 kts | 186° |
| 2026-04-16 15:08 | 52.00334 | -0.09981 | 4999 ft | 193 kts | 186° |
| 2026-04-16 15:08 | 51.98992 | -0.10075 | 4988 ft | 190 kts | 186° |
| 2026-04-16 15:08 | 51.97697 | -0.10165 | 4577 ft | 181 kts | 186° |
| 2026-04-16 15:09 | 51.96463 | -0.10249 | 3968 ft | 177 kts | 186° |
| 2026-04-16 15:09 | 51.95225 | -0.10332 | 3616 ft | 180 kts | 186° |
| 2026-04-16 15:09 | 51.93981 | -0.10446 | 3253 ft | 177 kts | 192° |
| 2026-04-16 15:09 | 51.92851 | -0.11113 | 3023 ft | 172 kts | 212° |
| 2026-04-16 15:10 | 51.91983 | -0.12415 | 2991 ft | 170 kts | 237° |
| 2026-04-16 15:10 | 51.91493 | -0.14153 | 3021 ft | 170 kts | 246° |
| 2026-04-16 15:10 | 51.91078 | -0.15866 | 2999 ft | 156 kts | 252° |
| 2026-04-16 15:10 | 51.90797 | -0.17559 | 2734 ft | 152 kts | 252° |
| 2026-04-16 15:11 | 51.90519 | -0.19171 | 2378 ft | 150 kts | 252° |
| 2026-04-16 15:11 | 51.90236 | -0.20802 | 2043 ft | 147 kts | 252° |
| 2026-04-16 15:11 | 51.89975 | -0.22314 | 2016 ft | 137 kts | 253° |
| 2026-04-16 15:11 | 51.89716 | -0.23795 | 1960 ft | 136 kts | 252° |
| 2026-04-16 15:12 | 51.89460 | -0.25260 | 1814 ft | 135 kts | 251° |
| 2026-04-16 15:12 | 51.89207 | -0.26721 | 1653 ft | 135 kts | 252° |
| 2026-04-16 15:12 | 51.88955 | -0.28184 | 1474 ft | 136 kts | 253° |
| 2026-04-16 15:12 | 51.88702 | -0.29651 | 1292 ft | 136 kts | 254° |
| 2026-04-16 15:13 | 51.88450 | -0.31113 | 1096 ft | 136 kts | 253° |
| 2026-04-16 15:13 | 51.88193 | -0.32606 | 924 ft | 138 kts | 253° |
| 2026-04-16 15:13 | 51.87938 | -0.34086 | 735 ft | 134 kts | 255° |
| 2026-04-16 15:13 | 51.87689 | -0.35540 | 574 ft | 134 kts | 256° |
| 2026-04-16 15:14 | 51.87468 | -0.36854 | 523 ft | 100 kts | 255° |
| 2026-04-16 15:14 | 51.87341 | -0.37584 | 521 ft | 16 kts | 254° |
| 2026-04-16 15:14 | 51.87338 | -0.37677 | 521 ft | 8 kts | 291° |
| 2026-04-16 15:14 | 51.87383 | -0.37701 | 521 ft | 8 kts | 26° |
| 2026-04-16 15:15 | 51.87427 | -0.37639 | 521 ft | 8 kts | 45° |
| 2026-04-16 15:15 | 51.87468 | -0.37568 | 522 ft | 9 kts | 47° |
| 2026-04-16 15:15 | 51.87521 | -0.37490 | 521 ft | 11 kts | 31° |
| 2026-04-16 15:15 | 51.87595 | -0.37462 | 523 ft | 11 kts | 3° |
| 2026-04-16 15:16 | 51.87669 | -0.37502 | 521 ft | 13 kts | 322° |
| 2026-04-16 15:16 | 51.87721 | -0.37640 | 519 ft | 16 kts | 297° |
| 2026-04-16 15:16 | 51.87762 | -0.37783 | 523 ft | 13 kts | 295° |
| 2026-04-16 15:16 | 51.87806 | -0.37925 | 523 ft | 15 kts | 304° |
| 2026-04-16 15:17 | 51.87889 | -0.38012 | 523 ft | 15 kts | 352° |
| 2026-04-16 15:17 | 51.87992 | -0.37967 | 523 ft | 16 kts | 34° |
| 2026-04-16 15:17 | 51.88083 | -0.37852 | 523 ft | 17 kts | 38° |
| 2026-04-16 15:17 | 51.88166 | -0.37705 | 523 ft | 18 kts | 59° |
| 2026-04-16 15:18 | 51.88208 | -0.37546 | 516 ft | 16 kts | 93° |
| 2026-04-16 15:18 | 51.88222 | -0.37371 | 516 ft | 16 kts | 71° |
| 2026-04-16 15:18 | 51.88193 | -0.37226 | 516 ft | 16 kts | 158° |
| 2026-04-16 15:18 | 51.88099 | -0.37176 | 510 ft | 0 kts | 163° |
| 2026-04-16 15:19 | 51.88089 | -0.37172 | 509 ft | 4 kts | 169° |
| 2026-04-16 15:20 | 51.88050 | -0.37198 | 508 ft | 7 kts | 229° |
| 2026-04-16 15:20 | 51.88058 | -0.37241 | 508 ft | 4 kts | 332° |
| 2026-04-16 15:20 | 51.88087 | -0.37263 | 508 ft | 0 kts | 341° |
| 2026-04-16 15:20 | 51.88092 | -0.37265 | 508 ft | 0 kts | 341° |
| 2026-04-16 15:21 | 51.88093 | -0.37266 | 508 ft | 0 kts | 341° |